Time;durP1;ratioP1;P1;durP2;ratioP2;P2;SDS_P1;SDS_P2;PMS_P1;PMS_P2;Temp;Humidity;BMP_temperature;BMP_pressure;BME280_temperature;BME280_humidity;BME280_pressure;Samples;Min_cycle;Max_cycle;Signal;HPM_P1;HPM_P2
2022/06/14 00:01:11;;;;;;;;;;;11.60;99.90;;;;;;4968318;28;19910;-62
2022/06/14 00:03:41;;;;;;;;;;;11.50;99.90;;;;;;4968462;28;19906;-61
2022/06/14 00:06:27;;;;;;;;;;;11.50;99.90;;;;;;4968989;28;20413;-61
2022/06/14 00:08:53;;;;;;;;;;;11.40;99.90;;;;;;4970937;28;19918;-61
2022/06/14 00:11:23;;;;;;;;;;;11.30;99.90;;;;;;4971327;28;20236;-61
2022/06/14 00:13:49;;;;;;;;;;;11.20;99.90;;;;;;4970968;28;19906;-61
2022/06/14 00:16:15;;;;;;;;;;;11.20;99.90;;;;;;4971192;28;20385;-61
2022/06/14 00:18:40;;;;;;;;;;;11.10;99.90;;;;;;4971044;28;19906;-61
2022/06/14 00:21:06;;;;;;;;;;;11.10;99.90;;;;;;4971035;28;19913;-61
2022/06/14 00:23:32;;;;;;;;;;;11.10;99.90;;;;;;4969901;28;20019;-62
2022/06/14 00:25:58;;;;;;;;;;;11.00;99.90;;;;;;4967921;28;19913;-63
2022/06/14 00:28:26;;;;;;;;;;;11.00;99.90;;;;;;4968601;28;19914;-64
2022/06/14 00:30:53;;;;;;;;;;;10.90;99.90;;;;;;4971113;28;19906;-62
2022/06/14 00:33:18;;;;;;;;;;;10.90;99.90;;;;;;4971161;28;19910;-61
2022/06/14 00:35:44;;;;;;;;;;;10.90;99.90;;;;;;4971005;28;20279;-61
2022/06/14 00:38:10;;;;;;;;;;;10.90;99.90;;;;;;4970787;28;19910;-61
2022/06/14 00:40:36;;;;;;;;;;;10.90;99.90;;;;;;4970938;28;19910;-62
2022/06/14 00:43:04;;;;;;;;;;;10.80;99.90;;;;;;4970835;28;19989;-61
2022/06/14 00:45:30;;;;;;;;;;;10.80;99.90;;;;;;4970546;28;20331;-62
2022/06/14 00:48:03;;;;;;;;;;;10.80;99.90;;;;;;4970901;28;20013;-61
2022/06/14 00:50:31;;;;;;;;;;;10.80;99.90;;;;;;4972434;28;19968;-62
2022/06/14 00:53:06;;;;;;;;;;;10.80;99.90;;;;;;4974341;28;20009;-61
2022/06/14 00:55:40;;;;;;;;;;;10.80;99.90;;;;;;4974225;28;19921;-62
2022/06/14 00:58:08;;;;;;;;;;;10.80;99.90;;;;;;4974297;28;20363;-62
2022/06/14 01:00:38;;;;;;;;;;;10.70;99.90;;;;;;4974102;28;19913;-63
2022/06/14 01:03:05;;;;;;;;;;;10.60;99.90;;;;;;4971546;28;19921;-62
2022/06/14 01:06:05;;;;;;;;;;;10.60;99.90;;;;;;4970684;28;20319;-62
2022/06/14 01:08:20;;;;;;;;;;;10.70;99.90;;;;;;4973746;28;19920;-62
2022/06/14 01:10:47;;;;;;;;;;;10.70;99.90;;;;;;4974093;28;19921;-62
2022/06/14 01:13:13;;;;;;;;;;;10.70;99.90;;;;;;4974153;28;19960;-62
2022/06/14 01:15:39;;;;;;;;;;;10.70;99.90;;;;;;4956484;28;20052;-62
2022/06/14 01:18:08;;;;;;;;;;;10.60;99.90;;;;;;4969372;28;20013;-62
2022/06/14 01:20:34;;;;;;;;;;;10.60;99.90;;;;;;4954427;29;19910;-61
2022/06/14 01:23:00;;;;;;;;;;;10.50;99.90;;;;;;4954367;29;19914;-61
2022/06/14 01:25:29;;;;;;;;;;;10.50;99.90;;;;;;4954717;28;19911;-62
2022/06/14 01:27:55;;;;;;;;;;;10.40;99.90;;;;;;4954494;29;19911;-61
2022/06/14 01:30:23;;;;;;;;;;;10.30;99.90;;;;;;4953905;29;19914;-61
2022/06/14 01:32:54;;;;;;;;;;;10.20;99.90;;;;;;4954356;28;20005;-61
2022/06/14 01:35:21;;;;;;;;;;;10.10;99.90;;;;;;4958474;28;20382;-61
2022/06/14 01:37:48;;;;;;;;;;;10.10;99.90;;;;;;4973410;28;19941;-62
2022/06/14 01:40:14;;;;;;;;;;;10.10;99.90;;;;;;4973454;28;19918;-62
2022/06/14 01:42:39;;;;;;;;;;;10.10;99.90;;;;;;4973558;28;20513;-61
2022/06/14 01:45:14;;;;;;;;;;;10.10;99.90;;;;;;4973621;28;19906;-64
2022/06/14 01:47:51;;;;;;;;;;;10.10;99.90;;;;;;4970152;28;19921;-61
2022/06/14 01:53:09;;;;;;;;;;;10.00;99.90;;;;;;4973308;28;19917;-62
2022/06/14 01:56:07;;;;;;;;;;;10.00;99.90;;;;;;4973140;28;19912;-61
2022/06/14 01:58:40;;;;;;;;;;;9.90;99.90;;;;;;4960991;28;19910;-62
2022/06/14 02:01:08;;;;;;;;;;;9.80;99.90;;;;;;4973030;28;19957;-62
2022/06/14 02:06:31;;;;;;;;;;;9.60;99.90;;;;;;4973093;28;19960;-64
2022/06/14 02:09:03;;;;;;;;;;;9.60;99.90;;;;;;4972818;28;19918;-64
2022/06/14 02:11:31;;;;;;;;;;;9.60;99.90;;;;;;4973000;28;19910;-61
2022/06/14 02:14:00;;;;;;;;;;;9.70;99.90;;;;;;4972678;28;19917;-62
2022/06/14 02:16:51;;;;;;;;;;;9.70;99.90;;;;;;4972849;28;19964;-62
2022/06/14 02:19:20;;;;;;;;;;;9.70;99.90;;;;;;4971770;28;20009;-60
2022/06/14 02:21:47;;;;;;;;;;;9.70;99.90;;;;;;4972408;28;19913;-61
2022/06/14 02:24:31;;;;;;;;;;;9.60;99.90;;;;;;4972693;28;19906;-64
2022/06/14 02:27:00;;;;;;;;;;;9.60;99.90;;;;;;4972489;28;19929;-61
2022/06/14 02:29:29;;;;;;;;;;;9.60;99.90;;;;;;4972492;28;19921;-62
2022/06/14 02:31:57;;;;;;;;;;;9.60;99.90;;;;;;4972517;28;20669;-61
2022/06/14 02:34:28;;;;;;;;;;;9.60;99.90;;;;;;4972555;28;20306;-64
2022/06/14 02:37:05;;;;;;;;;;;9.50;99.90;;;;;;4972274;28;19906;-62
2022/06/14 02:39:36;;;;;;;;;;;9.40;99.90;;;;;;4972279;28;19961;-64
2022/06/14 02:42:01;;;;;;;;;;;9.40;99.90;;;;;;4972292;28;19918;-61
2022/06/14 02:44:29;;;;;;;;;;;9.40;99.90;;;;;;4972248;28;19910;-61
2022/06/14 02:46:57;;;;;;;;;;;9.40;99.90;;;;;;4972538;28;19929;-61
2022/06/14 02:49:28;;;;;;;;;;;9.30;99.90;;;;;;4972036;28;20384;-62
2022/06/14 02:52:14;;;;;;;;;;;9.30;99.90;;;;;;4971950;28;19907;-61
2022/06/14 02:54:45;;;;;;;;;;;9.30;99.90;;;;;;4971723;28;19906;-61
2022/06/14 02:57:18;;;;;;;;;;;9.20;99.90;;;;;;4972147;28;19906;-61
2022/06/14 02:59:50;;;;;;;;;;;9.20;99.90;;;;;;4971975;28;20449;-61
2022/06/14 03:02:21;;;;;;;;;;;9.10;99.90;;;;;;4971841;28;20426;-61
2022/06/14 03:04:53;;;;;;;;;;;9.00;99.90;;;;;;4971953;28;20420;-64
2022/06/14 03:07:18;;;;;;;;;;;8.90;99.90;;;;;;4955559;28;19906;-61
2022/06/14 03:09:45;;;;;;;;;;;8.90;99.90;;;;;;4952508;29;19911;-61
2022/06/14 03:12:10;;;;;;;;;;;8.90;99.90;;;;;;4951850;29;19913;-61
2022/06/14 03:14:45;;;;;;;;;;;8.90;99.90;;;;;;4951552;28;19914;-62
2022/06/14 03:17:18;;;;;;;;;;;8.80;99.90;;;;;;4952644;29;19957;-64
2022/06/14 03:19:48;;;;;;;;;;;8.80;99.90;;;;;;4950783;29;20001;-61
2022/06/14 03:22:19;;;;;;;;;;;8.80;99.90;;;;;;4949158;29;20355;-61
2022/06/14 03:24:59;;;;;;;;;;;8.80;99.90;;;;;;4949291;29;20417;-61
2022/06/14 03:27:30;;;;;;;;;;;8.80;99.90;;;;;;4949283;29;19910;-61
2022/06/14 03:30:06;;;;;;;;;;;8.90;99.90;;;;;;4948934;29;19969;-64
2022/06/14 03:32:32;;;;;;;;;;;8.90;99.90;;;;;;4951609;29;19910;-62
2022/06/14 03:35:02;;;;;;;;;;;9.00;99.90;;;;;;4953473;28;19906;-61
2022/06/14 03:37:28;;;;;;;;;;;9.00;99.90;;;;;;4963339;28;19921;-61
2022/06/14 03:39:56;;;;;;;;;;;9.00;99.90;;;;;;4951968;29;19918;-61
2022/06/14 03:42:21;;;;;;;;;;;8.90;99.90;;;;;;4952166;29;19906;-62
2022/06/14 03:44:47;;;;;;;;;;;8.90;99.90;;;;;;4952294;29;19916;-61
2022/06/14 03:47:15;;;;;;;;;;;8.90;99.90;;;;;;4952084;29;19921;-63
2022/06/14 03:49:47;;;;;;;;;;;8.80;99.90;;;;;;4952197;29;19952;-63
2022/06/14 03:52:41;;;;;;;;;;;8.70;99.90;;;;;;4951995;29;19912;-63
2022/06/14 03:55:27;;;;;;;;;;;8.50;99.90;;;;;;4933048;29;20463;-63
2022/06/14 03:58:11;;;;;;;;;;;8.40;99.90;;;;;;4952287;29;19932;-63
2022/06/14 04:00:47;;;;;;;;;;;8.30;99.90;;;;;;4951790;29;20430;-63
2022/06/14 04:03:25;;;;;;;;;;;8.30;99.90;;;;;;4950732;29;19907;-63
2022/06/14 04:05:56;;;;;;;;;;;8.30;99.90;;;;;;4960010;28;20263;-63
2022/06/14 04:08:35;;;;;;;;;;;8.30;99.90;;;;;;4971193;28;19914;-63
2022/06/14 04:11:19;;;;;;;;;;;8.30;99.90;;;;;;4971230;28;19917;-63
2022/06/14 04:13:59;;;;;;;;;;;8.40;99.90;;;;;;4971431;28;19906;-63
2022/06/14 04:16:44;;;;;;;;;;;8.30;99.90;;;;;;4960652;28;19914;-63
2022/06/14 04:19:18;;;;;;;;;;;8.30;99.90;;;;;;4948379;28;19907;-63
2022/06/14 04:21:59;;;;;;;;;;;8.30;99.90;;;;;;4948481;29;19910;-63
2022/06/14 04:24:34;;;;;;;;;;;8.40;99.90;;;;;;4948850;28;19914;-63
2022/06/14 04:27:10;;;;;;;;;;;8.40;99.90;;;;;;4952541;29;19907;-63
2022/06/14 04:29:38;;;;;;;;;;;8.30;99.90;;;;;;4952373;28;20272;-62
2022/06/14 04:32:16;;;;;;;;;;;8.30;99.90;;;;;;4952404;29;19970;-63
2022/06/14 04:34:41;;;;;;;;;;;8.30;99.90;;;;;;4952267;29;20375;-61
2022/06/14 04:37:11;;;;;;;;;;;8.30;99.90;;;;;;4971202;28;19910;-64
2022/06/14 04:39:47;;;;;;;;;;;8.30;99.90;;;;;;4974565;28;19961;-62
2022/06/14 04:42:17;;;;;;;;;;;8.30;99.90;;;;;;4974574;28;20356;-62
2022/06/14 04:44:47;;;;;;;;;;;8.40;99.90;;;;;;4974288;28;19910;-62
2022/06/14 04:47:16;;;;;;;;;;;8.40;99.90;;;;;;4974446;28;20371;-62
2022/06/14 04:49:41;;;;;;;;;;;8.50;99.90;;;;;;4974456;28;19925;-62
2022/06/14 04:52:17;;;;;;;;;;;8.50;99.90;;;;;;4974139;28;19906;-61
2022/06/14 04:54:56;;;;;;;;;;;8.50;99.90;;;;;;4974458;28;19906;-62
2022/06/14 04:57:25;;;;;;;;;;;8.60;99.90;;;;;;4974584;28;19928;-62
2022/06/14 04:59:52;;;;;;;;;;;8.60;99.90;;;;;;4974219;28;20390;-62
2022/06/14 05:02:18;;;;;;;;;;;8.70;99.90;;;;;;4970039;28;19910;-62
2022/06/14 05:04:58;;;;;;;;;;;8.80;99.90;;;;;;4971589;28;19917;-62
2022/06/14 05:07:32;;;;;;;;;;;8.90;99.90;;;;;;4970957;28;20378;-62
2022/06/14 05:09:58;;;;;;;;;;;9.00;99.90;;;;;;4952226;28;19910;-62
2022/06/14 05:12:32;;;;;;;;;;;9.10;99.90;;;;;;4952833;29;19907;-62
2022/06/14 05:15:01;;;;;;;;;;;9.20;99.90;;;;;;4954630;29;19933;-62
2022/06/14 05:17:31;;;;;;;;;;;9.40;99.90;;;;;;4952269;29;19927;-62
2022/06/14 05:20:10;;;;;;;;;;;9.50;99.90;;;;;;4951675;28;19915;-62
2022/06/14 05:22:40;;;;;;;;;;;9.60;99.90;;;;;;4953685;29;19913;-62
2022/06/14 05:25:06;;;;;;;;;;;9.80;99.90;;;;;;4954511;29;20014;-62
2022/06/14 05:27:35;;;;;;;;;;;9.90;99.90;;;;;;4951766;29;19959;-62
2022/06/14 05:30:03;;;;;;;;;;;9.90;99.90;;;;;;4951087;28;19913;-62
2022/06/14 05:32:40;;;;;;;;;;;9.90;99.90;;;;;;4953247;28;19906;-62
2022/06/14 05:35:15;;;;;;;;;;;10.00;99.90;;;;;;4957204;28;20108;-62
2022/06/14 05:37:41;;;;;;;;;;;10.10;99.90;;;;;;4972441;28;20008;-62
2022/06/14 05:40:11;;;;;;;;;;;10.20;99.90;;;;;;4973663;28;20001;-62
2022/06/14 05:42:41;;;;;;;;;;;10.20;99.90;;;;;;4971029;28;19914;-62
2022/06/14 05:45:09;;;;;;;;;;;10.30;99.90;;;;;;4970196;28;19941;-62
2022/06/14 05:47:37;;;;;;;;;;;10.40;99.90;;;;;;4972257;28;19917;-62
2022/06/14 05:50:03;;;;;;;;;;;;;;;;;;4973432;28;19910;-62
2022/06/14 05:52:29;;;;;;;;;;;;;;;;;;4970017;28;19910;-62
2022/06/14 05:54:55;;;;;;;;;;;;;;;;;;4970315;28;20098;-62
2022/06/14 05:57:20;;;;;;;;;;;;;;;;;;4970383;28;19940;-62
2022/06/14 05:59:51;;;;;;;;;;;10.50;99.90;;;;;;4969847;28;20358;-62
2022/06/14 06:02:19;;;;;;;;;;;11.20;99.90;;;;;;4971813;28;20390;-62
2022/06/14 06:04:49;;;;;;;;;;;11.30;99.90;;;;;;4973212;28;19906;-62
2022/06/14 06:07:18;;;;;;;;;;;11.40;99.90;;;;;;4934633;29;20017;-62
2022/06/14 06:09:47;;;;;;;;;;;11.60;99.90;;;;;;4934354;29;20260;-62
2022/06/14 06:12:17;;;;;;;;;;;11.70;99.90;;;;;;4932786;29;19913;-62
2022/06/14 06:14:50;;;;;;;;;;;11.90;99.90;;;;;;4931100;29;20340;-62
2022/06/14 06:17:18;;;;;;;;;;;12.00;99.90;;;;;;4933242;29;19930;-62
2022/06/14 06:19:54;;;;;;;;;;;12.20;99.90;;;;;;4934601;29;20402;-63
2022/06/14 06:22:22;;;;;;;;;;;12.40;99.90;;;;;;4934070;29;19930;-63
2022/06/14 06:24:51;;;;;;;;;;;12.60;99.90;;;;;;4931364;29;19954;-63
2022/06/14 06:27:17;;;;;;;;;;;12.80;99.90;;;;;;4945897;29;20288;-63
2022/06/14 06:29:43;;;;;;;;;;;12.90;99.90;;;;;;4930987;29;19921;-64
2022/06/14 06:32:09;;;;;;;;;;;13.20;99.90;;;;;;4931415;29;20001;-64
2022/06/14 06:34:35;;;;;;;;;;;13.40;99.90;;;;;;4931367;29;19926;-62
2022/06/14 06:37:04;;;;;;;;;;;13.50;99.90;;;;;;4948457;28;19953;-63
2022/06/14 06:39:39;;;;;;;;;;;13.70;99.90;;;;;;4948899;29;19918;-63
2022/06/14 06:42:12;;;;;;;;;;;13.90;99.90;;;;;;4950577;29;19997;-63
2022/06/14 06:44:53;;;;;;;;;;;14.20;99.90;;;;;;4950447;29;19914;-63
2022/06/14 06:47:33;;;;;;;;;;;14.40;99.90;;;;;;4952565;28;19946;-63
2022/06/14 06:50:05;;;;;;;;;;;14.50;99.90;;;;;;4953040;29;19949;-63
2022/06/14 06:52:38;;;;;;;;;;;14.70;99.90;;;;;;4952882;29;19910;-63
2022/06/14 06:55:07;;;;;;;;;;;14.90;99.90;;;;;;4952976;29;20386;-63
2022/06/14 06:57:33;;;;;;;;;;;15.10;99.90;;;;;;4952995;29;19906;-63
2022/06/14 07:00:00;;;;;;;;;;;15.40;99.90;;;;;;4952555;29;19969;-63
2022/06/14 07:02:36;;;;;;;;;;;15.70;99.90;;;;;;4950280;29;19946;-63
2022/06/14 07:05:03;;;;;;;;;;;15.80;99.90;;;;;;4951123;28;20111;-63
2022/06/14 07:07:38;;;;;;;;;;;16.20;99.90;;;;;;4969702;28;19910;-63
2022/06/14 07:10:06;;;;;;;;;;;16.40;99.90;;;;;;4972242;28;19981;-64
2022/06/14 07:12:37;;;;;;;;;;;16.70;99.90;;;;;;4971912;28;19930;-64
2022/06/14 07:15:12;;;;;;;;;;;16.90;99.90;;;;;;4962234;28;19906;-64
2022/06/14 07:17:43;;;;;;;;;;;17.20;99.90;;;;;;4952573;29;20388;-63
2022/06/14 07:20:15;;;;;;;;;;;17.20;99.90;;;;;;4952729;29;19907;-63
2022/06/14 07:22:47;;;;;;;;;;;17.40;99.90;;;;;;4952121;29;19976;-63
2022/06/14 07:25:28;;;;;;;;;;;17.30;99.90;;;;;;4952378;28;19913;-63
2022/06/14 07:28:05;;;;;;;;;;;17.40;99.90;;;;;;4952251;28;20280;-63
2022/06/14 07:30:44;;;;;;;;;;;17.50;99.90;;;;;;4952424;28;19911;-64
2022/06/14 07:33:10;;;;;;;;;;;17.70;99.90;;;;;;4952871;28;19929;-64
2022/06/14 07:35:42;;;;;;;;;;;17.90;99.90;;;;;;4958595;28;20260;-64
2022/06/14 07:38:20;;;;;;;;;;;18.00;99.90;;;;;;4971412;28;19910;-63
2022/06/14 07:40:53;;;;;;;;;;;18.10;99.90;;;;;;4971328;28;19914;-64
2022/06/14 07:43:25;;;;;;;;;;;18.30;99.90;;;;;;4971757;28;19906;-64
2022/06/14 07:45:51;;;;;;;;;;;18.40;99.90;;;;;;4971474;28;19910;-64
2022/06/14 07:48:22;;;;;;;;;;;18.40;99.90;;;;;;4971474;28;19936;-64
2022/06/14 07:50:57;;;;;;;;;;;18.60;99.90;;;;;;4971486;28;19910;-64
2022/06/14 07:53:29;;;;;;;;;;;19.00;99.90;;;;;;4970104;28;20061;-64
2022/06/14 07:55:55;;;;;;;;;;;19.70;99.90;;;;;;4968591;28;19969;-62
2022/06/14 07:58:37;;;;;;;;;;;20.30;99.90;;;;;;4968391;28;20287;-63
2022/06/14 08:01:12;;;;;;;;;;;21.00;98.30;;;;;;4970883;28;20569;-62
2022/06/14 08:03:49;;;;;;;;;;;21.70;97.20;;;;;;4972217;28;19972;-63
2022/06/14 08:06:19;;;;;;;;;;;22.40;94.50;;;;;;4971866;28;20283;-63
2022/06/14 08:08:47;;;;;;;;;;;23.10;94.40;;;;;;4972110;28;19957;-63
2022/06/14 08:11:16;;;;;;;;;;;23.30;92.40;;;;;;4972472;28;19906;-63
2022/06/14 08:13:45;;;;;;;;;;;23.60;91.50;;;;;;4972657;28;19909;-63
2022/06/14 08:16:10;;;;;;;;;;;23.80;91.40;;;;;;4972516;28;20279;-66
2022/06/14 08:18:50;;;;;;;;;;;24.30;90.00;;;;;;4972158;28;19917;-66
2022/06/14 08:21:19;;;;;;;;;;;25.00;88.30;;;;;;4971833;28;20005;-66
2022/06/14 08:23:52;;;;;;;;;;;25.40;83.30;;;;;;4972234;28;19933;-64
2022/06/14 08:26:24;;;;;;;;;;;25.10;82.00;;;;;;4971936;28;19993;-65
2022/06/14 08:29:10;;;;;;;;;;;24.40;80.50;;;;;;4972189;28;19914;-64
2022/06/14 08:31:42;;;;;;;;;;;25.20;82.50;;;;;;4971667;28;19960;-64
2022/06/14 08:34:22;;;;;;;;;;;25.60;76.00;;;;;;4971889;28;20009;-63
2022/06/14 08:36:51;;;;;;;;;;;25.90;73.50;;;;;;4971537;28;20363;-64
2022/06/14 08:39:20;;;;;;;;;;;26.10;72.10;;;;;;4971424;28;20319;-63
2022/06/14 08:42:02;;;;;;;;;;;25.60;67.70;;;;;;4971779;28;20450;-64
2022/06/14 08:44:34;;;;;;;;;;;26.60;68.30;;;;;;4972159;28;19925;-64
2022/06/14 08:47:09;;;;;;;;;;;27.00;69.80;;;;;;4951235;29;19910;-63
2022/06/14 08:49:53;;;;;;;;;;;27.50;63.10;;;;;;4952252;29;19914;-63
2022/06/14 08:52:37;;;;;;;;;;;26.90;59.40;;;;;;4952188;29;19953;-64
2022/06/14 08:55:18;;;;;;;;;;;27.30;59.30;;;;;;4952269;28;19910;-64
2022/06/14 08:58:04;;;;;;;;;;;27.80;60.70;;;;;;4952091;29;20283;-63
2022/06/14 09:00:38;;;;;;;;;;;28.30;54.00;;;;;;4952090;29;20002;-64
2022/06/14 09:03:07;;;;;;;;;;;27.70;49.50;;;;;;4952180;29;19982;-64
2022/06/14 09:05:39;;;;;;;;;;;27.80;50.40;;;;;;4957801;28;19906;-64
2022/06/14 09:08:23;;;;;;;;;;;27.60;52.40;;;;;;4957496;28;19916;-64
2022/06/14 09:11:07;;;;;;;;;;;28.00;52.10;;;;;;4951688;28;19907;-64
2022/06/14 09:13:51;;;;;;;;;;;28.40;47.30;;;;;;4953457;29;19910;-64
2022/06/14 09:16:35;;;;;;;;;;;29.10;45.60;;;;;;4954951;29;19934;-63
2022/06/14 09:19:19;;;;;;;;;;;28.10;41.10;;;;;;4954961;29;19914;-63
2022/06/14 09:21:57;;;;;;;;;;;27.60;41.70;;;;;;4954401;29;20433;-63
2022/06/14 09:24:25;;;;;;;;;;;26.30;41.70;;;;;;4951948;28;19906;-64
2022/06/14 09:26:53;;;;;;;;;;;25.70;44.40;;;;;;4951949;28;19913;-64
2022/06/14 09:29:42;;;;;;;;;;;26.70;45.30;;;;;;4953887;28;19919;-63
2022/06/14 09:32:13;;;;;;;;;;;27.70;42.40;;;;;;4954779;28;19906;-64
2022/06/14 09:34:46;;;;;;;;;;;28.60;39.40;;;;;;4955015;28;20001;-63
2022/06/14 09:37:33;;;;;;;;;;;29.60;38.80;;;;;;4972352;28;20355;-63
2022/06/14 09:40:11;;;;;;;;;;;28.80;33.60;;;;;;4970746;28;19925;-64
2022/06/14 09:42:36;;;;;;;;;;;29.20;35.20;;;;;;4972456;28;20349;-63
2022/06/14 09:45:06;;;;;;;;;;;29.70;34.20;;;;;;4973545;28;19906;-64
2022/06/14 09:47:50;;;;;;;;;;;30.30;33.40;;;;;;4973548;28;19917;-64
2022/06/14 09:50:19;;;;;;;;;;;29.80;31.20;;;;;;4973400;28;19913;-64
2022/06/14 09:53:03;;;;;;;;;;;30.20;30.00;;;;;;4966582;28;20015;-63
2022/06/14 09:55:29;;;;;;;;;;;31.30;29.30;;;;;;4952460;29;19910;-64
2022/06/14 09:58:07;;;;;;;;;;;31.80;27.60;;;;;;4954156;28;20001;-63
2022/06/14 10:00:50;;;;;;;;;;;32.40;25.80;;;;;;4953376;29;20005;-66
2022/06/14 10:03:25;;;;;;;;;;;32.60;24.70;;;;;;4952988;28;19910;-67
2022/06/14 10:06:09;;;;;;;;;;;32.80;25.70;;;;;;4962073;28;19906;-67
2022/06/14 10:08:50;;;;;;;;;;;32.30;24.40;;;;;;4971802;28;20382;-65
2022/06/14 10:11:24;;;;;;;;;;;33.20;24.50;;;;;;4970380;28;19964;-68
2022/06/14 10:13:50;;;;;;;;;;;33.60;23.50;;;;;;4971527;28;19906;-64
2022/06/14 10:16:34;;;;;;;;;;;32.80;21.70;;;;;;4973128;28;19913;-64
2022/06/14 10:18:59;;;;;;;;;;;32.10;23.30;;;;;;4971825;28;19905;-66
2022/06/14 10:21:33;;;;;;;;;;;33.10;22.20;;;;;;4970256;28;20264;-67
2022/06/14 10:24:07;;;;;;;;;;;33.40;21.20;;;;;;4969503;28;19914;-66
2022/06/14 10:29:30;;;;;;;;;;;34.40;20.90;;;;;;4969767;28;20113;-65
2022/06/14 10:32:05;;;;;;;;;;;34.70;20.20;;;;;;4969915;28;20394;-64
2022/06/14 10:34:30;;;;;;;;;;;35.20;19.50;;;;;;4969654;28;20282;-64
2022/06/14 10:37:15;;;;;;;;;;;35.60;20.30;;;;;;4969745;28;19911;-63
2022/06/14 10:39:40;;;;;;;;;;;35.50;19.00;;;;;;4969537;28;19960;-65
2022/06/14 10:42:24;;;;;;;;;;;36.10;19.90;;;;;;4969719;28;19945;-64
2022/06/14 10:44:53;;;;;;;;;;;34.50;18.30;;;;;;4969565;28;20450;-64
2022/06/14 10:47:28;;;;;;;;;;;33.50;21.00;;;;;;4969595;28;20014;-65
2022/06/14 10:49:56;;;;;;;;;;;34.70;20.40;;;;;;4969481;28;19914;-65
2022/06/14 10:52:31;;;;;;;;;;;35.40;18.70;;;;;;4969409;28;19961;-66
2022/06/14 10:54:56;;;;;;;;;;;36.20;18.00;;;;;;4969943;28;19928;-65
2022/06/14 10:57:22;;;;;;;;;;;35.80;17.40;;;;;;4969013;28;20550;-64
2022/06/14 10:59:57;;;;;;;;;;;37.50;17.90;;;;;;4969257;28;19977;-65
2022/06/14 11:02:41;;;;;;;;;;;37.60;17.20;;;;;;4969152;28;19913;-65
2022/06/14 11:05:11;;;;;;;;;;;38.00;16.20;;;;;;4962923;28;19913;-67
2022/06/14 11:07:43;;;;;;;;;;;37.80;16.30;;;;;;4969018;28;20009;-65
2022/06/14 11:10:08;;;;;;;;;;;37.70;16.60;;;;;;4968960;28;19906;-63
2022/06/14 11:12:43;;;;;;;;;;;36.80;16.10;;;;;;4969151;28;19906;-63
2022/06/14 11:15:17;;;;;;;;;;;36.50;17.10;;;;;;4969066;28;19914;-62
2022/06/14 11:18:09;;;;;;;;;;;37.60;15.60;;;;;;4948691;29;19914;-63
2022/06/14 11:20:35;;;;;;;;;;;37.80;15.80;;;;;;4948361;28;20356;-63
2022/06/14 11:23:09;;;;;;;;;;;36.70;14.80;;;;;;4949713;28;19921;-62
2022/06/14 11:25:39;;;;;;;;;;;35.30;16.20;;;;;;4949665;28;20356;-63
2022/06/14 11:28:05;;;;;;;;;;;34.10;16.10;;;;;;4949940;28;19957;-63
2022/06/14 11:30:30;;;;;;;;;;;33.70;17.40;;;;;;4949485;28;20009;-63
2022/06/14 11:33:04;;;;;;;;;;;33.60;17.30;;;;;;4949630;28;19914;-62
2022/06/14 11:35:48;;;;;;;;;;;32.60;17.20;;;;;;4954211;28;20394;-64
2022/06/14 11:38:25;;;;;;;;;;;34.10;18.30;;;;;;4968438;28;20577;-63
2022/06/14 11:40:54;;;;;;;;;;;36.00;17.20;;;;;;4969040;28;19906;-62
2022/06/14 11:43:35;;;;;;;;;;;37.00;16.70;;;;;;4968765;28;19941;-64
2022/06/14 11:46:00;;;;;;;;;;;37.20;15.70;;;;;;4968208;28;20364;-62
2022/06/14 11:48:26;;;;;;;;;;;36.50;16.80;;;;;;4968606;28;19999;-63
2022/06/14 11:50:59;;;;;;;;;;;37.00;14.90;;;;;;4968505;28;19910;-63
2022/06/14 11:53:36;;;;;;;;;;;34.30;15.10;;;;;;4968864;28;19913;-62
2022/06/14 11:56:10;;;;;;;;;;;34.60;18.00;;;;;;4968590;28;20001;-61
2022/06/14 11:58:39;;;;;;;;;;;34.30;16.60;;;;;;4968332;28;20283;-61
2022/06/14 12:01:23;;;;;;;;;;;35.90;16.20;;;;;;4968323;28;19961;-62
2022/06/14 12:03:51;;;;;;;;;;;36.60;15.80;;;;;;4968423;28;20379;-61
2022/06/14 12:06:17;;;;;;;;;;;34.30;16.00;;;;;;4968236;28;19914;-62
2022/06/14 12:09:01;;;;;;;;;;;33.60;17.50;;;;;;4968178;28;19928;-61
2022/06/14 12:11:29;;;;;;;;;;;35.10;18.70;;;;;;4968622;28;19996;-62
2022/06/14 12:14:17;;;;;;;;;;;35.40;18.70;;;;;;4968075;28;19910;-62
2022/06/14 12:16:46;;;;;;;;;;;36.00;16.80;;;;;;4968512;28;20116;-61
2022/06/14 12:19:21;;;;;;;;;;;36.50;15.90;;;;;;4968493;28;19906;-62
2022/06/14 12:21:59;;;;;;;;;;;36.20;15.40;;;;;;4968257;28;19917;-61
2022/06/14 12:26:34;;;;;;;;;;;35.60;15.80;;;;;;4968250;28;20423;-61
2022/06/14 12:27:18;;;;;;;;;;;36.50;15.50;;;;;;4968091;28;19906;-61
2022/06/14 12:29:45;;;;;;;;;;;36.30;15.60;;;;;;4968356;28;19914;-61
2022/06/14 12:32:16;;;;;;;;;;;35.40;14.90;;;;;;4968550;28;20238;-61
2022/06/14 12:34:44;;;;;;;;;;;35.30;16.00;;;;;;4968524;28;20489;-61
2022/06/14 12:37:19;;;;;;;;;;;35.50;16.00;;;;;;4967587;28;20378;-61
2022/06/14 12:39:52;;;;;;;;;;;35.50;16.10;;;;;;4967838;28;20401;-61
2022/06/14 12:42:38;;;;;;;;;;;35.30;15.50;;;;;;4968151;28;19910;-61
2022/06/14 12:45:06;;;;;;;;;;;34.80;15.70;;;;;;4968298;28;19979;-62
2022/06/14 12:47:58;;;;;;;;;;;35.20;16.00;;;;;;4971194;28;19921;-62
2022/06/14 12:50:25;;;;;;;;;;;34.20;16.30;;;;;;4963059;28;20378;-62
2022/06/14 12:52:52;;;;;;;;;;;33.60;16.60;;;;;;4971775;28;20003;-62
2022/06/14 12:55:30;;;;;;;;;;;33.60;16.40;;;;;;4971640;28;19910;-63
2022/06/14 12:57:59;;;;;;;;;;;34.10;17.00;;;;;;4963945;28;19906;-63
2022/06/14 13:00:47;;;;;;;;;;;35.00;17.40;;;;;;4954266;28;19969;-63
2022/06/14 13:03:13;;;;;;;;;;;34.50;16.10;;;;;;4951923;28;19922;-63
2022/06/14 13:05:41;;;;;;;;;;;34.10;17.00;;;;;;4958470;28;19917;-63
2022/06/14 13:08:14;;;;;;;;;;;34.30;16.60;;;;;;4971366;28;19918;-62
2022/06/14 13:11:02;;;;;;;;;;;33.70;16.50;;;;;;4970772;28;20260;-62
2022/06/14 13:13:46;;;;;;;;;;;33.80;17.40;;;;;;4961329;28;20001;-63
2022/06/14 13:16:18;;;;;;;;;;;34.10;16.50;;;;;;4951640;28;19914;-63
2022/06/14 13:18:52;;;;;;;;;;;31.80;16.70;;;;;;4951608;28;20371;-62
2022/06/14 13:21:24;;;;;;;;;;;31.70;17.50;;;;;;4952132;28;19961;-62
2022/06/14 13:23:58;;;;;;;;;;;32.90;18.90;;;;;;4951665;28;19910;-62
2022/06/14 13:26:35;;;;;;;;;;;32.80;17.50;;;;;;4951732;28;20509;-61
2022/06/14 13:29:10;;;;;;;;;;;32.70;17.00;;;;;;4951894;28;19914;-62
2022/06/14 13:31:54;;;;;;;;;;;33.10;16.60;;;;;;4951504;28;19934;-62
2022/06/14 13:34:27;;;;;;;;;;;32.70;17.20;;;;;;4951699;28;19954;-62
2022/06/14 13:37:13;;;;;;;;;;;33.00;16.90;;;;;;4968042;28;19910;-62
2022/06/14 13:39:39;;;;;;;;;;;32.70;17.00;;;;;;4967390;28;19922;-64
2022/06/14 13:42:11;;;;;;;;;;;32.40;17.30;;;;;;4954195;28;20271;-63
2022/06/14 13:44:43;;;;;;;;;;;32.60;17.20;;;;;;4951170;28;19914;-63
2022/06/14 13:47:19;;;;;;;;;;;32.60;17.20;;;;;;4951247;29;19917;-63
2022/06/14 13:49:49;;;;;;;;;;;32.20;17.40;;;;;;4950884;29;19921;-63
2022/06/14 13:52:14;;;;;;;;;;;32.00;18.60;;;;;;4950664;29;20001;-64
2022/06/14 13:54:47;;;;;;;;;;;31.70;18.00;;;;;;4951029;29;20013;-63
2022/06/14 13:57:32;;;;;;;;;;;31.60;18.30;;;;;;4950463;28;20064;-65
2022/06/14 14:00:13;;;;;;;;;;;30.70;18.90;;;;;;4950524;28;19966;-64
2022/06/14 14:02:46;;;;;;;;;;;30.40;19.50;;;;;;4950622;29;20085;-62
2022/06/14 14:05:21;;;;;;;;;;;30.80;22.10;;;;;;4953974;28;19913;-62
2022/06/14 14:07:59;;;;;;;;;;;30.40;19.70;;;;;;4969543;28;20379;-63
2022/06/14 14:10:24;;;;;;;;;;;30.10;20.40;;;;;;4969854;28;19917;-64
2022/06/14 14:12:50;;;;;;;;;;;30.30;20.80;;;;;;4969922;28;19906;-62
2022/06/14 14:15:24;;;;;;;;;;;29.50;21.50;;;;;;4968634;28;20751;-62
2022/06/14 14:17:53;;;;;;;;;;;29.30;21.10;;;;;;4970070;28;19906;-63
2022/06/14 14:20:30;;;;;;;;;;;29.30;21.80;;;;;;4960115;28;19913;-61
2022/06/14 14:23:02;;;;;;;;;;;28.50;21.70;;;;;;4951035;29;20390;-63
2022/06/14 14:25:31;;;;;;;;;;;28.40;22.30;;;;;;4950501;29;20459;-62
2022/06/14 14:27:57;;;;;;;;;;;28.30;21.90;;;;;;4950038;29;19915;-62
2022/06/14 14:30:40;;;;;;;;;;;28.00;22.60;;;;;;4950545;29;19914;-62
2022/06/14 14:33:16;;;;;;;;;;;27.90;23.00;;;;;;4950046;29;19915;-62
2022/06/14 14:35:47;;;;;;;;;;;27.20;23.00;;;;;;4957364;28;19905;-62
2022/06/14 14:38:34;;;;;;;;;;;27.00;25.30;;;;;;4969603;28;19917;-62
2022/06/14 14:43:47;;;;;;;;;;;27.10;25.10;;;;;;4969208;28;19913;-62
2022/06/14 14:46:14;;;;;;;;;;;26.90;25.60;;;;;;4969674;28;19929;-63
2022/06/14 14:48:40;;;;;;;;;;;27.00;26.60;;;;;;4968890;28;20025;-63
2022/06/14 14:51:14;;;;;;;;;;;26.80;25.10;;;;;;4968844;28;20001;-62
2022/06/14 14:53:39;;;;;;;;;;;26.60;27.30;;;;;;4969202;28;19952;-63
2022/06/14 14:56:21;;;;;;;;;;;26.20;25.40;;;;;;4969171;28;19949;-62
2022/06/14 14:58:49;;;;;;;;;;;26.10;25.70;;;;;;4968999;28;19909;-62
2022/06/14 15:07:15;;;;;;;;;;;26.00;27.00;;;;;;4949280;28;19907;-62
2022/06/14 15:09:45;;;;;;;;;;;25.70;27.20;;;;;;4968780;28;19925;-62